createdAt,value
2018-01-06T00:01:44.335Z,98.83
2018-01-06T00:04:21.523Z,99.10
2018-01-06T00:06:50.551Z,99.26
2018-01-06T00:09:19.592Z,99.04
2018-01-06T00:11:48.609Z,98.98
2018-01-06T00:14:42.673Z,98.97
2018-01-06T00:17:34.576Z,99.26
2018-01-06T00:22:43.317Z,99.26
2018-01-06T00:27:47.571Z,98.51
2018-01-06T00:30:16.593Z,98.07
2018-01-06T00:32:51.329Z,97.97
2018-01-06T00:35:20.360Z,97.67
2018-01-06T00:37:49.433Z,98.10
2018-01-06T00:40:18.461Z,98.18
2018-01-06T00:42:47.489Z,97.66
2018-01-06T00:48:00.768Z,97.82
2018-01-06T00:50:29.786Z,97.77
2018-01-06T00:53:04.365Z,98.15
2018-01-06T00:55:35.354Z,98.53
2018-01-06T00:58:05.301Z,98.75
2018-01-06T01:03:10.542Z,99.19
2018-01-06T01:05:43.303Z,98.18
2018-01-06T01:08:12.363Z,98.79
2018-01-06T01:10:59.889Z,99.08
2018-01-06T01:13:34.025Z,99.02
2018-01-06T01:16:03.109Z,99.10
2018-01-06T01:18:32.136Z,98.53
2018-01-06T01:21:01.185Z,98.40
2018-01-06T01:23:38.535Z,98.79
2018-01-06T01:26:07.566Z,99.02
2018-01-06T01:31:11.800Z,99.25
2018-01-06T01:33:40.846Z,99.25
2018-01-06T01:36:09.914Z,99.24
2018-01-06T01:41:16.134Z,99.44
2018-01-06T01:43:45.169Z,99.06
2018-01-06T01:46:28.524Z,99.38
2018-01-06T01:49:04.928Z,99.27
2018-01-06T01:51:33.954Z,99.33
2018-01-06T01:54:11.732Z,99.33
2018-01-06T01:56:40.769Z,99.33
2018-01-06T01:59:10.701Z,99.28
2018-01-06T02:01:39.768Z,99.26
2018-01-06T02:04:22.017Z,99.44
2018-01-06T02:06:51.085Z,99.29
2018-01-06T02:09:27.209Z,99.05
2018-01-06T02:12:00.008Z,98.90
2018-01-06T02:14:29.060Z,98.71
2018-01-06T02:16:58.080Z,98.69
2018-01-06T02:19:29.017Z,97.77
2018-01-06T02:21:58.088Z,98.09
2018-01-06T02:27:02.294Z,98.83
2018-01-06T02:29:31.355Z,98.87
2018-01-06T02:32:00.361Z,99.32
2018-01-06T02:34:29.417Z,99.33
2018-01-06T02:36:58.440Z,99.71
2018-01-06T02:39:28.477Z,99.91
2018-01-06T02:41:57.521Z,99.47
2018-01-06T02:44:26.574Z,99.04
2018-01-06T02:46:55.600Z,99.08
2018-01-06T02:49:24.673Z,99.24
2018-01-06T02:51:58.638Z,99.47
2018-01-06T02:54:27.682Z,99.63
2018-01-06T02:56:56.707Z,99.53
2018-01-06T02:59:25.741Z,99.48
2018-01-06T03:01:54.781Z,99.40
2018-01-06T03:04:24.790Z,99.42
2018-01-06T03:06:53.823Z,99.40
2018-01-06T03:09:23.755Z,99.17
2018-01-06T03:14:28.882Z,99.36
2018-01-06T03:17:01.654Z,99.22
2018-01-06T03:19:30.681Z,99.40
2018-01-06T03:22:07.422Z,99.06
2018-01-06T03:24:36.461Z,99.19
2018-01-06T03:27:05.522Z,99.48
2018-01-06T03:29:34.548Z,99.24
2018-01-06T03:32:10.945Z,99.15
2018-01-06T03:34:39.979Z,99.26
2018-01-06T03:37:09.038Z,98.92
2018-01-06T03:39:38.067Z,98.75
2018-01-06T03:42:07.106Z,98.35
2018-01-06T03:44:36.136Z,98.45
2018-01-06T03:47:05.165Z,98.90
2018-01-06T03:49:50.917Z,99.62
2018-01-06T03:52:20.017Z,99.92
2018-01-06T03:54:54.144Z,99.52
2018-01-06T03:59:58.341Z,99.06
2018-01-06T04:02:35.237Z,99.01
2018-01-06T04:05:04.286Z,99.23
2018-01-06T04:07:43.275Z,99.34
2018-01-06T04:10:34.077Z,99.39
2018-01-06T04:13:03.106Z,99.36
2018-01-06T04:15:35.069Z,98.75
2018-01-06T04:18:04.110Z,98.47
2018-01-06T04:23:08.374Z,97.76
2018-01-06T04:28:12.623Z,97.74
2018-01-06T04:30:41.653Z,98.03
2018-01-06T04:33:11.666Z,98.22
2018-01-06T04:35:41.619Z,98.48
2018-01-06T04:40:50.031Z,98.43
2018-01-06T04:43:20.977Z,98.47
2018-01-06T04:45:50.038Z,98.68
2018-01-06T04:48:19.068Z,98.85
2018-01-06T04:50:50.008Z,97.83
2018-01-06T04:53:26.962Z,97.32
2018-01-06T04:55:55.989Z,98.45
2018-01-06T04:58:32.641Z,98.54
2018-01-06T05:01:01.697Z,98.91
2018-01-06T05:03:34.743Z,99.24
2018-01-06T05:08:38.995Z,99.09
2018-01-06T05:11:08.051Z,99.00
2018-01-06T05:13:37.091Z,99.02
2018-01-06T05:16:16.714Z,98.20
2018-01-06T05:19:03.671Z,98.46
2018-01-06T05:21:32.713Z,98.73
2018-01-06T05:24:02.797Z,98.76
2018-01-06T05:26:31.869Z,99.05
2018-01-06T05:29:01.857Z,99.32
2018-01-06T05:31:30.881Z,99.42
2018-01-06T05:34:13.105Z,99.27
2018-01-06T05:37:15.399Z,99.06
2018-01-06T05:39:50.343Z,98.91
2018-01-06T05:42:19.649Z,99.00
2018-01-06T05:44:48.709Z,99.05
2018-01-06T05:47:17.778Z,98.94
2018-01-06T05:49:48.782Z,98.89
2018-01-06T05:52:17.810Z,98.98
2018-01-06T05:54:46.843Z,99.04
2018-01-06T05:57:15.877Z,98.97
2018-01-06T05:59:59.521Z,98.87
2018-01-06T06:02:28.565Z,98.65
2018-01-06T06:04:59.535Z,98.62
2018-01-06T06:07:28.574Z,98.69
2018-01-06T06:10:10.309Z,97.97
2018-01-06T06:12:43.070Z,98.10
2018-01-06T06:15:17.905Z,98.55
2018-01-06T06:17:46.955Z,98.69
2018-01-06T06:20:16.899Z,98.72
2018-01-06T06:23:01.283Z,98.70
2018-01-06T06:25:30.313Z,98.64
2018-01-06T06:28:00.339Z,98.46
2018-01-06T06:30:29.403Z,98.42
2018-01-06T06:33:11.291Z,98.31
2018-01-06T06:35:50.669Z,98.52
2018-01-06T06:38:19.701Z,98.76
2018-01-06T06:43:23.928Z,98.91
2018-01-06T06:45:52.968Z,99.25
2018-01-06T06:48:21.994Z,99.42
2018-01-06T06:50:55.833Z,99.30
2018-01-06T06:53:24.878Z,98.99
2018-01-06T06:55:53.934Z,99.08
2018-01-06T06:58:22.982Z,99.38
2018-01-06T07:00:52.034Z,99.58
2018-01-06T07:03:21.078Z,99.48
2018-01-06T07:05:50.105Z,99.30
2018-01-06T07:08:19.147Z,99.17
2018-01-06T07:10:48.173Z,99.10
2018-01-06T07:15:52.455Z,99.30
2018-01-06T07:18:29.403Z,98.68
2018-01-06T07:21:04.137Z,98.78
2018-01-06T07:23:33.180Z,99.06
2018-01-06T07:28:39.409Z,98.72
2018-01-06T07:31:08.451Z,98.74
2018-01-06T07:33:37.501Z,98.96
2018-01-06T07:36:06.591Z,98.91
2018-01-06T07:38:35.616Z,98.97
2018-01-06T07:41:09.463Z,98.66
2018-01-06T07:43:38.505Z,98.91
2018-01-06T07:46:07.550Z,99.21
2018-01-06T07:48:38.529Z,99.35
2018-01-06T07:51:12.877Z,98.80
2018-01-06T07:53:41.962Z,98.49
2018-01-06T07:56:10.977Z,97.60
2018-01-06T07:58:40.072Z,97.48
2018-01-06T08:01:10.101Z,97.45
2018-01-06T08:03:39.182Z,97.34
2018-01-06T08:06:08.225Z,96.90
2018-01-06T08:08:37.254Z,97.66
2018-01-06T08:11:10.073Z,97.54
2018-01-06T08:13:39.102Z,97.46
2018-01-06T08:16:17.555Z,96.57
2018-01-06T08:18:46.590Z,96.72
2018-01-06T08:21:17.524Z,96.62
2018-01-06T08:23:46.552Z,96.96
2018-01-06T08:28:50.796Z,96.29
2018-01-06T08:33:55.027Z,95.45
2018-01-06T08:36:28.506Z,94.79
2018-01-06T08:38:57.540Z,94.90
2018-01-06T08:44:01.774Z,94.27
2018-01-06T08:54:16.494Z,95.36
2018-01-06T08:56:46.430Z,93.06
2018-01-06T08:59:32.415Z,87.21
2018-01-06T09:02:01.457Z,82.55
2018-01-06T09:04:31.430Z,83.96
2018-01-06T09:07:01.371Z,75.05
2018-01-06T09:12:08.373Z,78.07
2018-01-06T09:14:39.643Z,69.90
2018-01-06T09:17:08.705Z,73.38
2018-01-06T09:19:38.670Z,70.55
2018-01-06T09:22:07.699Z,69.54
2018-01-06T09:24:36.771Z,72.30
2018-01-06T09:27:05.818Z,68.38
2018-01-06T09:29:34.865Z,63.94
2018-01-06T09:32:03.935Z,60.38
2018-01-06T09:34:32.980Z,56.34
2018-01-06T09:37:02.043Z,57.70
2018-01-06T09:39:31.102Z,62.05
2018-01-06T09:42:01.086Z,54.68
2018-01-06T09:44:30.126Z,56.98
2018-01-06T09:46:59.193Z,58.91
2018-01-06T09:49:29.208Z,58.14
2018-01-06T09:51:59.228Z,47.95
2018-01-06T09:54:29.245Z,57.18
2018-01-06T09:56:58.287Z,50.76
2018-01-06T09:59:27.354Z,44.52
2018-01-06T10:01:56.415Z,51.55
2018-01-06T10:09:35.943Z,43.66
2018-01-06T10:12:11.415Z,38.37
2018-01-06T10:14:40.589Z,47.20
2018-01-06T10:17:09.634Z,49.76
2018-01-06T10:19:38.711Z,45.22
2018-01-06T10:22:07.766Z,47.41
2018-01-06T10:27:12.638Z,43.29
2018-01-06T10:29:43.657Z,43.92
2018-01-06T10:32:12.706Z,45.25
2018-01-06T10:34:41.794Z,43.32
2018-01-06T10:37:10.853Z,43.76
2018-01-06T10:39:39.961Z,40.84
2018-01-06T10:42:09.006Z,40.43
2018-01-06T10:44:38.046Z,40.91
2018-01-06T10:47:07.115Z,40.98
2018-01-06T10:49:36.154Z,41.06
2018-01-06T10:52:05.200Z,41.30
2018-01-06T10:54:35.270Z,39.58
2018-01-06T10:57:04.335Z,40.27
2018-01-06T10:59:33.385Z,40.22
2018-01-06T11:04:41.206Z,36.85
2018-01-06T11:07:11.199Z,35.43
2018-01-06T11:09:40.250Z,35.41
2018-01-06T11:12:09.453Z,41.33
2018-01-06T11:14:38.502Z,44.01
2018-01-06T11:19:42.886Z,44.98
2018-01-06T11:22:11.932Z,42.45
2018-01-06T11:24:40.970Z,38.33
2018-01-06T11:27:10.962Z,39.63
2018-01-06T11:29:40.002Z,40.60
2018-01-06T11:32:13.882Z,41.49
2018-01-06T11:34:43.974Z,42.66
2018-01-06T11:37:13.290Z,41.25
2018-01-06T11:39:42.327Z,38.86
2018-01-06T11:42:11.379Z,40.85
2018-01-06T11:44:41.366Z,37.45
2018-01-06T11:47:10.442Z,36.82
2018-01-06T11:49:39.451Z,34.25
2018-01-06T11:52:08.514Z,38.77
2018-01-06T11:54:37.550Z,39.47
2018-01-06T11:57:06.595Z,35.23
2018-01-06T11:59:35.630Z,31.93
2018-01-06T12:02:05.611Z,32.05
2018-01-06T12:04:34.684Z,32.89
2018-01-06T12:09:39.011Z,34.91
2018-01-06T12:12:08.065Z,33.20
2018-01-06T12:14:37.121Z,31.68
2018-01-06T12:17:07.647Z,33.96
2018-01-06T12:19:37.593Z,31.76
2018-01-06T12:22:06.658Z,37.36
2018-01-06T12:24:35.690Z,37.25
2018-01-06T12:27:04.751Z,40.67
2018-01-06T12:29:33.785Z,44.12
2018-01-06T12:32:02.865Z,44.84
2018-01-06T12:34:31.962Z,44.37
2018-01-06T12:37:01.007Z,41.10
2018-01-06T12:39:31.011Z,43.11
2018-01-06T12:42:00.066Z,40.84
2018-01-06T12:44:29.103Z,45.78
2018-01-06T12:46:58.158Z,44.41
2018-01-06T12:49:27.204Z,42.17
2018-01-06T12:51:56.269Z,43.08
2018-01-06T12:54:25.325Z,43.27
2018-01-06T12:56:54.378Z,45.24
2018-01-06T12:59:23.431Z,44.82
2018-01-06T13:01:52.472Z,44.86
2018-01-06T13:04:21.550Z,41.70
2018-01-06T13:06:51.587Z,38.08
2018-01-06T13:09:20.825Z,36.35
2018-01-06T13:14:25.193Z,36.02
2018-01-06T13:19:30.570Z,34.26
2018-01-06T13:21:59.639Z,34.88
2018-01-06T13:24:28.690Z,33.40
2018-01-06T13:26:57.758Z,32.87
2018-01-06T13:29:26.782Z,31.69
2018-01-06T13:31:55.826Z,28.40
2018-01-06T13:34:24.878Z,33.35
2018-01-06T13:36:53.937Z,35.32
2018-01-06T13:39:22.986Z,33.15
2018-01-06T13:41:52.032Z,33.74
2018-01-06T13:44:21.105Z,33.36
2018-01-06T13:46:50.145Z,31.62
2018-01-06T13:51:54.495Z,31.51
2018-01-06T13:54:23.542Z,32.33
2018-01-06T13:56:52.589Z,33.35
2018-01-06T13:59:21.634Z,35.21
2018-01-06T14:04:26.451Z,36.56
2018-01-06T14:08:58.922Z,33.46
2018-01-06T14:11:27.979Z,33.32
2018-01-06T14:13:57.042Z,34.64
2018-01-06T14:16:26.082Z,38.01
2018-01-06T14:18:56.132Z,40.98
2018-01-06T14:21:25.166Z,42.03
2018-01-06T14:23:57.973Z,44.07
2018-01-06T14:26:27.030Z,46.22
2018-01-06T14:28:56.077Z,45.83
2018-01-06T14:31:25.118Z,47.65
2018-01-06T14:33:54.177Z,48.17
2018-01-06T14:36:27.092Z,49.14
2018-01-06T14:38:56.135Z,50.64
2018-01-06T14:41:27.450Z,50.79
2018-01-06T14:44:02.892Z,52.88
2018-01-06T14:46:32.249Z,54.60
2018-01-06T14:49:01.719Z,53.99
2018-01-06T14:51:34.025Z,58.31
2018-01-06T14:56:40.899Z,56.41
2018-01-06T14:59:10.169Z,58.69
2018-01-06T15:01:40.437Z,57.44
2018-01-06T15:04:12.087Z,66.67
2018-01-06T15:07:05.802Z,70.32
2018-01-06T15:09:46.761Z,68.76
2018-01-06T15:12:16.598Z,73.05
2018-01-06T15:14:55.568Z,70.71
2018-01-06T15:17:26.874Z,73.53
2018-01-06T15:20:00.663Z,73.25
2018-01-06T15:22:30.187Z,72.59
2018-01-06T15:24:59.213Z,67.64
2018-01-06T15:27:35.562Z,72.64
2018-01-06T15:30:06.490Z,69.14
2018-01-06T15:32:35.770Z,72.11
2018-01-06T15:35:06.782Z,67.69
2018-01-06T15:40:11.087Z,72.90
2018-01-06T15:42:40.188Z,72.78
2018-01-06T15:45:09.298Z,76.40
2018-01-06T15:47:48.763Z,76.97
2018-01-06T15:50:17.798Z,76.72
2018-01-06T15:52:48.818Z,82.07
2018-01-06T15:55:23.439Z,79.37
2018-01-06T15:58:03.320Z,74.93
2018-01-06T16:00:32.350Z,78.53
2018-01-06T16:03:25.943Z,80.42
2018-01-06T16:08:30.149Z,76.97
2018-01-06T16:11:02.780Z,78.53
2018-01-06T16:13:31.900Z,81.53
2018-01-06T16:16:27.385Z,82.30
2018-01-06T16:18:56.529Z,77.07
2018-01-06T16:21:27.562Z,76.82
2018-01-06T16:24:05.929Z,74.97
2018-01-06T16:26:35.017Z,76.16
2018-01-06T16:31:40.426Z,76.99
2018-01-06T16:34:09.483Z,75.74
2018-01-06T16:36:38.497Z,82.32
2018-01-06T16:39:07.540Z,81.31
2018-01-06T16:41:37.463Z,77.94
2018-01-06T16:44:06.501Z,83.76
2018-01-06T16:46:35.530Z,84.51
2018-01-06T16:49:04.570Z,81.59
2018-01-06T16:51:35.191Z,79.23
2018-01-06T16:54:05.188Z,79.68
2018-01-06T16:56:34.233Z,77.66
2018-01-06T16:59:03.292Z,90.10
2018-01-06T17:01:32.301Z,84.87
2018-01-06T17:04:01.326Z,83.28
2018-01-06T17:06:30.394Z,86.75
2018-01-06T17:08:59.437Z,84.77
2018-01-06T17:11:28.522Z,88.79
2018-01-06T17:13:57.545Z,91.44
2018-01-06T17:16:26.590Z,86.68
2018-01-06T17:18:55.613Z,84.69
2018-01-06T17:21:24.650Z,89.63
2018-01-06T17:23:53.686Z,88.42
2018-01-06T17:26:25.969Z,84.56
2018-01-06T17:28:55.051Z,87.21
2018-01-06T17:31:26.042Z,89.04
2018-01-06T17:33:56.919Z,86.27
2018-01-06T17:36:36.617Z,91.50
2018-01-06T17:39:05.660Z,89.14
2018-01-06T17:41:39.217Z,86.50
2018-01-06T17:44:08.257Z,87.43
2018-01-06T17:49:13.558Z,85.41
2018-01-06T17:51:48.481Z,86.22
2018-01-06T17:54:21.257Z,88.98
2018-01-06T17:56:50.335Z,89.73
2018-01-06T17:59:23.916Z,89.05
2018-01-06T18:01:52.963Z,86.53
2018-01-06T18:04:22.928Z,86.74
2018-01-06T18:06:51.957Z,87.60
2018-01-06T18:11:56.281Z,90.76
2018-01-06T18:14:25.380Z,89.40
2018-01-06T18:16:54.429Z,86.25
2018-01-06T18:19:23.473Z,89.91
2018-01-06T18:21:52.537Z,89.61
2018-01-06T18:24:22.615Z,87.73
2018-01-06T18:26:52.568Z,86.28
2018-01-06T18:29:31.343Z,87.70
2018-01-06T18:32:00.588Z,87.23
2018-01-06T18:34:31.653Z,86.30
2018-01-06T18:37:05.117Z,86.50
2018-01-06T18:39:42.662Z,86.25
2018-01-06T18:42:23.062Z,86.93
2018-01-06T18:44:52.292Z,86.64
2018-01-06T18:47:21.382Z,84.68
2018-01-06T18:49:50.857Z,85.00
2018-01-06T18:52:19.952Z,88.69
2018-01-06T18:54:49.191Z,89.00
2018-01-06T18:57:21.469Z,91.28
2018-01-06T18:59:51.160Z,92.21
2018-01-06T19:02:20.625Z,89.37
2018-01-06T19:04:50.627Z,89.81
2018-01-06T19:07:19.812Z,90.51
2018-01-06T19:10:03.527Z,92.08
2018-01-06T19:12:51.386Z,92.24
2018-01-06T19:15:20.366Z,93.43
2018-01-06T19:17:49.433Z,92.45
2018-01-06T19:20:18.465Z,93.36
2018-01-06T19:22:48.601Z,93.21
2018-01-06T19:25:17.878Z,94.30
2018-01-06T19:27:48.360Z,94.66
2018-01-06T19:30:18.554Z,94.44
2018-01-06T19:32:51.481Z,94.70
2018-01-06T19:35:20.766Z,94.30
2018-01-06T19:37:56.983Z,94.09
2018-01-06T19:40:32.460Z,93.73
2018-01-06T19:43:10.694Z,95.11
2018-01-06T19:45:47.643Z,95.27
2018-01-06T19:48:16.822Z,94.20
2018-01-06T19:50:55.476Z,94.58
2018-01-06T19:53:24.642Z,93.32
2018-01-06T19:55:58.737Z,92.24
2018-01-06T19:58:27.783Z,93.71
2018-01-06T20:01:04.199Z,92.60
2018-01-06T20:03:33.222Z,92.53
2018-01-06T20:06:07.045Z,93.11
2018-01-06T20:08:37.118Z,93.79
2018-01-06T20:11:10.528Z,93.56
2018-01-06T20:13:43.499Z,93.43
2018-01-06T20:16:12.563Z,92.17
2018-01-06T20:18:45.208Z,91.86
2018-01-06T20:21:14.251Z,91.69
2018-01-06T20:23:50.790Z,91.65
2018-01-06T20:26:19.819Z,89.64
2018-01-06T20:29:06.441Z,90.27
2018-01-06T20:31:36.532Z,89.84
2018-01-06T20:34:06.548Z,89.06
2018-01-06T20:36:36.494Z,89.70
2018-01-06T20:39:15.193Z,89.62
2018-01-06T20:41:44.220Z,89.35
2018-01-06T20:44:15.170Z,88.23
2018-01-06T20:46:44.205Z,90.17
2018-01-06T20:49:13.238Z,89.64
2018-01-06T20:51:42.366Z,88.61
2018-01-06T20:54:13.302Z,85.82
2018-01-06T20:56:42.363Z,85.26
2018-01-06T20:59:26.886Z,84.41
2018-01-06T21:02:00.953Z,88.28
2018-01-06T21:04:39.181Z,87.67
2018-01-06T21:07:08.208Z,84.03
2018-01-06T21:09:37.253Z,84.93
2018-01-06T21:12:18.882Z,86.10
2018-01-06T21:14:47.983Z,87.31
2018-01-06T21:17:17.026Z,87.49
2018-01-06T21:19:46.882Z,89.49
2018-01-06T21:22:15.927Z,89.38
2018-01-06T21:24:45.015Z,86.95
2018-01-06T21:27:15.974Z,86.14
2018-01-06T21:29:45.027Z,89.57
2018-01-06T21:32:14.075Z,90.62
2018-01-06T21:34:43.208Z,88.99
2018-01-06T21:37:12.258Z,87.68
2018-01-06T21:39:41.306Z,86.88
2018-01-06T21:44:50.543Z,89.85
2018-01-06T21:47:27.288Z,88.06
2018-01-06T21:49:58.228Z,89.32
2018-01-06T21:52:32.577Z,90.39
2018-01-06T21:55:19.728Z,89.47
2018-01-06T21:57:49.023Z,92.05
2018-01-06T22:00:18.070Z,91.71
2018-01-06T22:02:49.818Z,92.18
2018-01-06T22:05:18.874Z,93.76
2018-01-06T22:07:47.959Z,92.84
2018-01-06T22:10:19.980Z,90.39
2018-01-06T22:12:54.321Z,90.97
2018-01-06T22:15:25.483Z,93.49
2018-01-06T22:17:55.917Z,92.53
2018-01-06T22:20:24.978Z,89.66
2018-01-06T22:22:54.939Z,91.32
2018-01-06T22:25:24.069Z,92.13
2018-01-06T22:30:28.398Z,88.96
2018-01-06T22:32:57.514Z,91.68
2018-01-06T22:35:30.112Z,91.40
2018-01-06T22:37:59.158Z,90.51
2018-01-06T22:40:28.207Z,92.93
2018-01-06T22:42:57.267Z,92.97
2018-01-06T22:45:33.462Z,92.86
2018-01-06T22:48:02.510Z,92.57
2018-01-06T22:50:31.557Z,93.50
2018-01-06T22:53:00.689Z,92.18
2018-01-06T22:58:08.293Z,94.29
2018-01-06T23:00:43.819Z,94.75
2018-01-06T23:03:13.019Z,96.58
2018-01-06T23:05:42.291Z,96.26
2018-01-06T23:08:12.208Z,94.97
2018-01-06T23:10:41.611Z,92.00
2018-01-06T23:13:11.825Z,94.34
2018-01-06T23:15:41.019Z,93.45
2018-01-06T23:18:13.480Z,94.14
2018-01-06T23:20:42.518Z,93.66
2018-01-06T23:23:26.342Z,93.90
2018-01-06T23:25:56.655Z,92.98
2018-01-06T23:28:25.733Z,93.51
2018-01-06T23:30:55.738Z,93.78
2018-01-06T23:33:24.781Z,94.91
2018-01-06T23:35:54.829Z,95.04
2018-01-06T23:38:23.957Z,95.64
2018-01-06T23:41:00.334Z,95.43
2018-01-06T23:43:29.389Z,94.90
2018-01-06T23:45:58.448Z,92.78
2018-01-06T23:48:27.485Z,90.85
2018-01-06T23:50:56.521Z,91.38
2018-01-06T23:53:25.809Z,92.55
2018-01-06T23:55:54.869Z,93.68
2018-01-06T23:58:23.918Z,93.27
